TimeCST,TemperatureF,Dew PointF,Humidity,Sea Level PressureIn,VisibilityMPH,Wind Direction,Wind SpeedMPH,Gust SpeedMPH,PrecipitationIn,Events,Conditions,WindDirDegrees,DateUTC
12:15 AM,15.8,10.4,79,30.17,10.0,SE,11.5,18.4,N/A,,Clear,130,2012-12-05 06:15:00
12:35 AM,15.8,12.2,86,30.17,10.0,SE,13.8,-,N/A,,Clear,140,2012-12-05 06:35:00
12:55 AM,15.8,12.2,86,30.16,10.0,SE,11.5,-,N/A,,Clear,140,2012-12-05 06:55:00
1:15 AM,17.6,12.2,79,30.14,10.0,SE,13.8,19.6,N/A,,Clear,140,2012-12-05 07:15:00
1:55 AM,17.6,12.2,79,30.12,10.0,SE,12.7,20.7,N/A,,Clear,140,2012-12-05 07:55:00
2:15 AM,17.6,12.2,79,30.11,10.0,SE,12.7,-,N/A,,Clear,140,2012-12-05 08:15:00
2:35 AM,17.6,12.2,79,30.11,10.0,SE,15.0,19.6,N/A,,Clear,140,2012-12-05 08:35:00
2:55 AM,17.6,12.2,79,30.11,10.0,SSE,12.7,19.6,N/A,,Clear,150,2012-12-05 08:55:00
3:15 AM,17.6,12.2,79,30.08,10.0,SE,18.4,-,N/A,,Clear,140,2012-12-05 09:15:00
3:35 AM,17.6,12.2,79,30.08,10.0,SE,13.8,-,N/A,,Clear,140,2012-12-05 09:35:00
3:55 AM,17.6,12.2,79,30.05,10.0,SE,13.8,20.7,N/A,,Clear,140,2012-12-05 09:55:00
4:15 AM,17.6,14.0,86,30.03,10.0,SE,11.5,18.4,N/A,,Clear,140,2012-12-05 10:15:00
4:35 AM,17.6,14.0,86,30.02,10.0,SE,12.7,-,N/A,,Clear,140,2012-12-05 10:35:00
4:55 AM,17.6,14.0,86,30.02,10.0,SSE,11.5,16.1,N/A,,Clear,160,2012-12-05 10:55:00
5:15 AM,19.4,14.0,80,29.99,10.0,SE,11.5,-,N/A,,Clear,140,2012-12-05 11:15:00
5:35 AM,19.4,14.0,80,30.00,10.0,SSE,11.5,-,N/A,,Clear,160,2012-12-05 11:35:00
5:55 AM,19.4,14.0,80,29.98,10.0,SSE,10.4,19.6,N/A,,Clear,160,2012-12-05 11:55:00
6:15 AM,19.4,15.8,86,29.97,10.0,SSE,12.7,-,N/A,,Clear,160,2012-12-05 12:15:00
6:35 AM,19.4,15.8,86,29.96,10.0,SSE,12.7,18.4,N/A,,Clear,160,2012-12-05 12:35:00
6:55 AM,19.4,15.8,86,29.95,10.0,SSE,13.8,19.6,N/A,,Clear,160,2012-12-05 12:55:00
8:35 AM,23.0,17.6,80,29.90,10.0,SSE,10.4,16.1,N/A,,Clear,160,2012-12-05 14:35:00
8:55 AM,24.8,19.4,80,29.88,10.0,SSE,13.8,19.6,N/A,,Clear,160,2012-12-05 14:55:00
9:15 AM,24.8,19.4,80,29.87,10.0,SSE,12.7,18.4,N/A,,Clear,160,2012-12-05 15:15:00
9:35 AM,26.6,19.4,74,29.85,10.0,SSE,15.0,-,N/A,,Clear,160,2012-12-05 15:35:00
9:55 AM,26.6,19.4,74,29.85,10.0,South,15.0,18.4,N/A,,Clear,170,2012-12-05 15:55:00
10:15 AM,26.6,21.2,80,29.84,10.0,SSE,13.8,24.2,N/A,,Clear,160,2012-12-05 16:15:00
10:35 AM,28.4,21.2,74,29.82,10.0,South,13.8,18.4,N/A,,Partly Cloudy,170,2012-12-05 16:35:00
10:55 AM,28.4,21.2,74,29.81,10.0,South,17.3,21.9,N/A,,Clear,170,2012-12-05 16:55:00
11:15 AM,28.4,21.2,74,29.80,10.0,SSE,13.8,23.0,N/A,,Clear,160,2012-12-05 17:15:00
11:35 AM,30.2,21.2,69,29.79,10.0,South,16.1,20.7,N/A,,Clear,170,2012-12-05 17:35:00
11:55 AM,32.0,23.0,69,29.78,10.0,South,13.8,-,N/A,,Clear,170,2012-12-05 17:55:00
12:15 PM,32.0,23.0,69,29.76,10.0,South,11.5,17.3,N/A,,Clear,170,2012-12-05 18:15:00
12:35 PM,32.0,23.0,69,29.74,10.0,South,10.4,-,N/A,,Clear,170,2012-12-05 18:35:00
12:55 PM,32.0,23.0,69,29.73,10.0,South,12.7,-,N/A,,Clear,170,2012-12-05 18:55:00
1:15 PM,32.0,23.0,69,29.70,10.0,SSE,12.7,-,N/A,,Clear,160,2012-12-05 19:15:00
1:35 PM,32.0,23.0,69,29.69,10.0,SSE,11.5,-,N/A,,Clear,160,2012-12-05 19:35:00
1:55 PM,32.0,23.0,69,29.66,10.0,SSE,16.1,20.7,N/A,,Clear,160,2012-12-05 19:55:00
2:15 PM,32.0,23.0,69,29.66,10.0,SSE,11.5,-,N/A,,Clear,160,2012-12-05 20:15:00
2:35 PM,33.8,23.0,65,29.66,10.0,SSE,11.5,-,N/A,,Clear,160,2012-12-05 20:35:00
2:55 PM,33.8,23.0,65,29.65,10.0,SSE,13.8,19.6,N/A,,Clear,160,2012-12-05 20:55:00
3:15 PM,33.8,23.0,65,29.65,10.0,South,11.5,17.3,N/A,,Clear,170,2012-12-05 21:15:00
3:35 PM,33.8,23.0,65,29.64,10.0,South,11.5,-,N/A,,Clear,170,2012-12-05 21:35:00
3:55 PM,33.8,24.8,70,29.62,10.0,SSE,11.5,-,N/A,,Partly Cloudy,160,2012-12-05 21:55:00
4:15 PM,33.8,24.8,70,29.62,10.0,South,11.5,16.1,N/A,,Partly Cloudy,170,2012-12-05 22:15:00
4:35 PM,35.6,24.8,65,29.61,10.0,SSE,11.5,-,N/A,,Partly Cloudy,160,2012-12-05 22:35:00
4:55 PM,33.8,24.8,70,29.60,10.0,South,12.7,-,N/A,,Clear,170,2012-12-05 22:55:00
5:15 PM,35.6,24.8,65,29.60,10.0,South,11.5,-,N/A,,Clear,170,2012-12-05 23:15:00
5:35 PM,35.6,24.8,65,29.61,10.0,South,9.2,-,N/A,,Clear,180,2012-12-05 23:35:00
5:55 PM,35.6,24.8,65,29.60,10.0,South,12.7,-,N/A,,Clear,180,2012-12-05 23:55:00
6:15 PM,35.6,24.8,65,29.60,10.0,SSW,12.7,-,N/A,,Clear,200,2012-12-06 00:15:00
6:35 PM,35.6,24.8,65,29.61,10.0,SSW,12.7,-,N/A,,Clear,200,2012-12-06 00:35:00
6:55 PM,35.6,26.6,70,29.61,10.0,SSW,12.7,-,N/A,,Partly Cloudy,210,2012-12-06 00:55:00
7:15 PM,35.6,26.6,70,29.61,10.0,SSW,10.4,-,N/A,,Scattered Clouds,210,2012-12-06 01:15:00
7:35 PM,35.6,26.6,70,29.61,10.0,SSW,8.1,-,N/A,,Scattered Clouds,210,2012-12-06 01:35:00
7:55 PM,35.6,26.6,70,29.61,10.0,SW,9.2,-,N/A,,Partly Cloudy,220,2012-12-06 01:55:00